sensor_id;sensor_type;location;lat;lon;timestamp;P1;durP1;ratioP1;P2;durP2;ratioP2
26594;SDS011;14238;49.496;8.154;2023-05-10T00:01:54;1.50;;;1.50;;
26594;SDS011;14238;49.496;8.154;2023-05-10T00:04:20;2.00;;;1.90;;
26594;SDS011;14238;49.496;8.154;2023-05-10T00:06:46;1.73;;;1.63;;
26594;SDS011;14238;49.496;8.154;2023-05-10T00:09:12;1.73;;;1.63;;
26594;SDS011;14238;49.496;8.154;2023-05-10T00:11:38;1.97;;;1.83;;
26594;SDS011;14238;49.496;8.154;2023-05-10T00:14:04;1.70;;;1.60;;
26594;SDS011;14238;49.496;8.154;2023-05-10T00:16:29;1.77;;;1.67;;
26594;SDS011;14238;49.496;8.154;2023-05-10T00:18:55;1.53;;;1.43;;
26594;SDS011;14238;49.496;8.154;2023-05-10T00:21:20;1.90;;;1.80;;
26594;SDS011;14238;49.496;8.154;2023-05-10T00:23:46;1.97;;;1.87;;
26594;SDS011;14238;49.496;8.154;2023-05-10T00:26:11;1.50;;;1.50;;
26594;SDS011;14238;49.496;8.154;2023-05-10T00:28:37;2.13;;;2.03;;
26594;SDS011;14238;49.496;8.154;2023-05-10T00:31:02;1.80;;;1.70;;
26594;SDS011;14238;49.496;8.154;2023-05-10T00:33:28;1.93;;;1.90;;
26594;SDS011;14238;49.496;8.154;2023-05-10T00:35:54;1.77;;;1.67;;
26594;SDS011;14238;49.496;8.154;2023-05-10T00:38:19;2.00;;;1.90;;
26594;SDS011;14238;49.496;8.154;2023-05-10T00:40:45;1.37;;;1.37;;
26594;SDS011;14238;49.496;8.154;2023-05-10T00:43:11;2.13;;;1.80;;
26594;SDS011;14238;49.496;8.154;2023-05-10T00:45:36;2.10;;;1.97;;
26594;SDS011;14238;49.496;8.154;2023-05-10T00:48:02;1.80;;;1.70;;
26594;SDS011;14238;49.496;8.154;2023-05-10T00:50:29;2.27;;;2.17;;
26594;SDS011;14238;49.496;8.154;2023-05-10T00:52:55;2.13;;;1.53;;
26594;SDS011;14238;49.496;8.154;2023-05-10T00:55:22;1.90;;;1.60;;
26594;SDS011;14238;49.496;8.154;2023-05-10T00:57:48;1.43;;;1.43;;
26594;SDS011;14238;49.496;8.154;2023-05-10T01:00:14;1.70;;;1.60;;
26594;SDS011;14238;49.496;8.154;2023-05-10T01:02:43;2.10;;;2.00;;
26594;SDS011;14238;49.496;8.154;2023-05-10T01:05:09;2.50;;;2.40;;
26594;SDS011;14238;49.496;8.154;2023-05-10T01:07:35;1.53;;;1.50;;
26594;SDS011;14238;49.496;8.154;2023-05-10T01:10:00;1.80;;;1.73;;
26594;SDS011;14238;49.496;8.154;2023-05-10T01:12:26;2.93;;;1.93;;
26594;SDS011;14238;49.496;8.154;2023-05-10T01:14:52;1.90;;;1.80;;
26594;SDS011;14238;49.496;8.154;2023-05-10T01:17:18;1.60;;;1.50;;
26594;SDS011;14238;49.496;8.154;2023-05-10T01:19:45;1.60;;;1.50;;
26594;SDS011;14238;49.496;8.154;2023-05-10T01:22:16;1.73;;;1.63;;
26594;SDS011;14238;49.496;8.154;2023-05-10T01:25:40;2.20;;;2.00;;
26594;SDS011;14238;49.496;8.154;2023-05-10T01:28:36;1.67;;;1.67;;
26594;SDS011;14238;49.496;8.154;2023-05-10T01:31:33;1.80;;;1.70;;
26594;SDS011;14238;49.496;8.154;2023-05-10T01:34:20;1.90;;;1.80;;
26594;SDS011;14238;49.496;8.154;2023-05-10T01:36:55;1.70;;;1.70;;
26594;SDS011;14238;49.496;8.154;2023-05-10T01:42:17;1.40;;;1.40;;
26594;SDS011;14238;49.496;8.154;2023-05-10T01:44:48;3.43;;;1.83;;
26594;SDS011;14238;49.496;8.154;2023-05-10T01:47:31;1.53;;;1.53;;
26594;SDS011;14238;49.496;8.154;2023-05-10T01:50:02;2.73;;;2.53;;
26594;SDS011;14238;49.496;8.154;2023-05-10T01:52:32;2.00;;;1.90;;
26594;SDS011;14238;49.496;8.154;2023-05-10T01:55:02;3.13;;;2.10;;
26594;SDS011;14238;49.496;8.154;2023-05-10T01:57:35;1.97;;;1.77;;
26594;SDS011;14238;49.496;8.154;2023-05-10T02:00:04;2.33;;;2.17;;
26594;SDS011;14238;49.496;8.154;2023-05-10T02:02:33;2.07;;;1.97;;
26594;SDS011;14238;49.496;8.154;2023-05-10T02:05:02;2.80;;;2.40;;
26594;SDS011;14238;49.496;8.154;2023-05-10T02:07:30;2.67;;;2.00;;
26594;SDS011;14238;49.496;8.154;2023-05-10T02:09:58;2.27;;;2.17;;
26594;SDS011;14238;49.496;8.154;2023-05-10T02:12:25;2.07;;;1.97;;
26594;SDS011;14238;49.496;8.154;2023-05-10T02:14:52;2.17;;;2.07;;
26594;SDS011;14238;49.496;8.154;2023-05-10T02:17:19;2.20;;;2.10;;
26594;SDS011;14238;49.496;8.154;2023-05-10T02:19:45;1.63;;;1.53;;
26594;SDS011;14238;49.496;8.154;2023-05-10T02:22:12;2.90;;;2.30;;
26594;SDS011;14238;49.496;8.154;2023-05-10T02:24:39;2.33;;;2.23;;
26594;SDS011;14238;49.496;8.154;2023-05-10T02:27:06;1.90;;;1.80;;
26594;SDS011;14238;49.496;8.154;2023-05-10T02:29:32;2.30;;;2.20;;
26594;SDS011;14238;49.496;8.154;2023-05-10T02:31:58;2.10;;;2.00;;
26594;SDS011;14238;49.496;8.154;2023-05-10T02:34:25;2.17;;;2.07;;
26594;SDS011;14238;49.496;8.154;2023-05-10T02:36:52;2.50;;;2.40;;
26594;SDS011;14238;49.496;8.154;2023-05-10T02:39:19;2.10;;;2.00;;
26594;SDS011;14238;49.496;8.154;2023-05-10T02:41:45;2.33;;;2.13;;
26594;SDS011;14238;49.496;8.154;2023-05-10T02:44:13;2.60;;;2.40;;
26594;SDS011;14238;49.496;8.154;2023-05-10T02:46:40;2.70;;;2.50;;
26594;SDS011;14238;49.496;8.154;2023-05-10T02:49:06;2.43;;;2.17;;
26594;SDS011;14238;49.496;8.154;2023-05-10T02:51:34;3.23;;;2.80;;
26594;SDS011;14238;49.496;8.154;2023-05-10T02:54:04;3.27;;;2.97;;
26594;SDS011;14238;49.496;8.154;2023-05-10T02:56:35;2.40;;;2.30;;
26594;SDS011;14238;49.496;8.154;2023-05-10T02:59:04;2.80;;;2.53;;
26594;SDS011;14238;49.496;8.154;2023-05-10T03:01:30;2.47;;;2.27;;
26594;SDS011;14238;49.496;8.154;2023-05-10T03:03:55;2.77;;;2.60;;
26594;SDS011;14238;49.496;8.154;2023-05-10T03:06:21;2.90;;;2.70;;
26594;SDS011;14238;49.496;8.154;2023-05-10T03:08:46;3.07;;;2.77;;
26594;SDS011;14238;49.496;8.154;2023-05-10T03:16:36;2.80;;;2.60;;
26594;SDS011;14238;49.496;8.154;2023-05-10T03:19:30;2.40;;;2.30;;
26594;SDS011;14238;49.496;8.154;2023-05-10T03:22:03;3.67;;;3.10;;
26594;SDS011;14238;49.496;8.154;2023-05-10T03:24:33;2.90;;;2.70;;
26594;SDS011;14238;49.496;8.154;2023-05-10T03:27:00;2.63;;;2.47;;
26594;SDS011;14238;49.496;8.154;2023-05-10T03:29:27;2.67;;;2.47;;
26594;SDS011;14238;49.496;8.154;2023-05-10T03:31:54;3.60;;;3.33;;
26594;SDS011;14238;49.496;8.154;2023-05-10T03:34:23;2.97;;;2.77;;
26594;SDS011;14238;49.496;8.154;2023-05-10T03:36:49;2.97;;;2.77;;
26594;SDS011;14238;49.496;8.154;2023-05-10T03:39:14;3.03;;;2.83;;
26594;SDS011;14238;49.496;8.154;2023-05-10T03:41:40;5.30;;;3.30;;
26594;SDS011;14238;49.496;8.154;2023-05-10T03:44:06;3.37;;;3.07;;
26594;SDS011;14238;49.496;8.154;2023-05-10T03:46:31;3.33;;;3.13;;
26594;SDS011;14238;49.496;8.154;2023-05-10T03:48:57;3.13;;;2.93;;
26594;SDS011;14238;49.496;8.154;2023-05-10T03:51:22;3.53;;;2.73;;
26594;SDS011;14238;49.496;8.154;2023-05-10T03:53:50;3.60;;;2.90;;
26594;SDS011;14238;49.496;8.154;2023-05-10T03:56:15;3.83;;;3.53;;
26594;SDS011;14238;49.496;8.154;2023-05-10T03:58:41;3.50;;;3.20;;
26594;SDS011;14238;49.496;8.154;2023-05-10T04:01:06;4.20;;;3.90;;
26594;SDS011;14238;49.496;8.154;2023-05-10T04:03:32;4.20;;;3.80;;
26594;SDS011;14238;49.496;8.154;2023-05-10T04:05:58;4.53;;;4.23;;
26594;SDS011;14238;49.496;8.154;2023-05-10T04:08:25;4.30;;;4.00;;
26594;SDS011;14238;49.496;8.154;2023-05-10T04:10:50;5.77;;;4.63;;
26594;SDS011;14238;49.496;8.154;2023-05-10T04:13:16;4.50;;;4.10;;
26594;SDS011;14238;49.496;8.154;2023-05-10T04:15:41;5.13;;;4.73;;
26594;SDS011;14238;49.496;8.154;2023-05-10T04:18:08;5.27;;;4.87;;
26594;SDS011;14238;49.496;8.154;2023-05-10T04:20:33;5.00;;;4.70;;
26594;SDS011;14238;49.496;8.154;2023-05-10T04:22:59;5.17;;;4.67;;
26594;SDS011;14238;49.496;8.154;2023-05-10T04:25:24;5.00;;;4.70;;
26594;SDS011;14238;49.496;8.154;2023-05-10T04:27:50;5.50;;;5.20;;
26594;SDS011;14238;49.496;8.154;2023-05-10T04:30:16;5.40;;;5.00;;
26594;SDS011;14238;49.496;8.154;2023-05-10T04:32:42;5.40;;;5.00;;
26594;SDS011;14238;49.496;8.154;2023-05-10T04:35:07;11.57;;;6.20;;
26594;SDS011;14238;49.496;8.154;2023-05-10T04:37:35;6.43;;;5.90;;
26594;SDS011;14238;49.496;8.154;2023-05-10T04:40:01;7.00;;;6.30;;
26594;SDS011;14238;49.496;8.154;2023-05-10T04:42:28;7.60;;;6.03;;
26594;SDS011;14238;49.496;8.154;2023-05-10T04:44:53;6.23;;;5.80;;
26594;SDS011;14238;49.496;8.154;2023-05-10T04:47:19;6.03;;;5.63;;
26594;SDS011;14238;49.496;8.154;2023-05-10T04:49:45;6.67;;;6.17;;
26594;SDS011;14238;49.496;8.154;2023-05-10T04:52:10;5.53;;;5.10;;
26594;SDS011;14238;49.496;8.154;2023-05-10T04:54:36;5.93;;;5.53;;
26594;SDS011;14238;49.496;8.154;2023-05-10T04:57:02;4.73;;;4.43;;
26594;SDS011;14238;49.496;8.154;2023-05-10T04:59:27;5.50;;;5.13;;
26594;SDS011;14238;49.496;8.154;2023-05-10T05:01:53;4.80;;;4.50;;
26594;SDS011;14238;49.496;8.154;2023-05-10T05:04:18;5.00;;;4.60;;
26594;SDS011;14238;49.496;8.154;2023-05-10T05:06:44;5.10;;;4.67;;
26594;SDS011;14238;49.496;8.154;2023-05-10T05:09:09;4.60;;;3.80;;
26594;SDS011;14238;49.496;8.154;2023-05-10T05:11:35;3.47;;;3.27;;
26594;SDS011;14238;49.496;8.154;2023-05-10T05:14:00;3.93;;;3.60;;
26594;SDS011;14238;49.496;8.154;2023-05-10T05:16:26;3.00;;;2.80;;
26594;SDS011;14238;49.496;8.154;2023-05-10T05:18:53;2.83;;;2.73;;
26594;SDS011;14238;49.496;8.154;2023-05-10T05:21:19;2.60;;;2.47;;
26594;SDS011;14238;49.496;8.154;2023-05-10T05:23:45;3.07;;;2.73;;
26594;SDS011;14238;49.496;8.154;2023-05-10T05:26:11;2.30;;;2.20;;
26594;SDS011;14238;49.496;8.154;2023-05-10T05:28:37;2.23;;;2.13;;
26594;SDS011;14238;49.496;8.154;2023-05-10T05:31:06;2.43;;;2.30;;
26594;SDS011;14238;49.496;8.154;2023-05-10T05:33:35;3.13;;;2.53;;
26594;SDS011;14238;49.496;8.154;2023-05-10T05:36:02;2.63;;;2.47;;
26594;SDS011;14238;49.496;8.154;2023-05-10T05:38:28;2.47;;;2.30;;
26594;SDS011;14238;49.496;8.154;2023-05-10T05:40:54;2.50;;;2.40;;
26594;SDS011;14238;49.496;8.154;2023-05-10T05:43:20;3.30;;;3.00;;
26594;SDS011;14238;49.496;8.154;2023-05-10T05:45:45;2.67;;;2.53;;
26594;SDS011;14238;49.496;8.154;2023-05-10T05:48:14;2.83;;;2.73;;
26594;SDS011;14238;49.496;8.154;2023-05-10T05:50:39;3.10;;;2.63;;
26594;SDS011;14238;49.496;8.154;2023-05-10T05:53:05;2.57;;;2.47;;
26594;SDS011;14238;49.496;8.154;2023-05-10T05:55:31;2.70;;;2.50;;
26594;SDS011;14238;49.496;8.154;2023-05-10T05:57:57;2.67;;;2.57;;
26594;SDS011;14238;49.496;8.154;2023-05-10T06:00:23;3.53;;;2.80;;
26594;SDS011;14238;49.496;8.154;2023-05-10T06:02:48;3.40;;;3.20;;
26594;SDS011;14238;49.496;8.154;2023-05-10T06:05:14;2.77;;;2.67;;
26594;SDS011;14238;49.496;8.154;2023-05-10T06:07:39;3.50;;;2.80;;
26594;SDS011;14238;49.496;8.154;2023-05-10T06:10:07;2.37;;;2.27;;
26594;SDS011;14238;49.496;8.154;2023-05-10T06:12:33;2.20;;;2.10;;
26594;SDS011;14238;49.496;8.154;2023-05-10T06:14:59;2.50;;;2.40;;
26594;SDS011;14238;49.496;8.154;2023-05-10T06:17:24;2.43;;;2.33;;
26594;SDS011;14238;49.496;8.154;2023-05-10T06:19:50;4.70;;;2.20;;
26594;SDS011;14238;49.496;8.154;2023-05-10T06:22:15;2.97;;;2.67;;
26594;SDS011;14238;49.496;8.154;2023-05-10T06:24:41;2.57;;;2.37;;
26594;SDS011;14238;49.496;8.154;2023-05-10T06:27:07;3.47;;;3.10;;
26594;SDS011;14238;49.496;8.154;2023-05-10T06:29:32;2.37;;;2.27;;
26594;SDS011;14238;49.496;8.154;2023-05-10T06:31:58;3.20;;;2.43;;
26594;SDS011;14238;49.496;8.154;2023-05-10T06:34:24;2.60;;;1.93;;
26594;SDS011;14238;49.496;8.154;2023-05-10T06:36:49;1.90;;;1.80;;
26594;SDS011;14238;49.496;8.154;2023-05-10T06:39:15;1.73;;;1.63;;
26594;SDS011;14238;49.496;8.154;2023-05-10T06:41:41;1.63;;;1.63;;
26594;SDS011;14238;49.496;8.154;2023-05-10T06:44:06;2.20;;;1.50;;
26594;SDS011;14238;49.496;8.154;2023-05-10T06:46:32;2.03;;;1.90;;
26594;SDS011;14238;49.496;8.154;2023-05-10T06:48:57;2.27;;;1.63;;
26594;SDS011;14238;49.496;8.154;2023-05-10T06:51:23;1.77;;;1.67;;
26594;SDS011;14238;49.496;8.154;2023-05-10T06:53:49;2.20;;;2.10;;
26594;SDS011;14238;49.496;8.154;2023-05-10T06:56:14;2.77;;;1.93;;
26594;SDS011;14238;49.496;8.154;2023-05-10T06:58:39;3.10;;;2.80;;
26594;SDS011;14238;49.496;8.154;2023-05-10T07:01:05;2.00;;;1.93;;
26594;SDS011;14238;49.496;8.154;2023-05-10T07:03:31;2.07;;;1.97;;
26594;SDS011;14238;49.496;8.154;2023-05-10T07:06:00;2.10;;;2.00;;
26594;SDS011;14238;49.496;8.154;2023-05-10T07:08:30;2.60;;;2.10;;
26594;SDS011;14238;49.496;8.154;2023-05-10T07:11:02;1.80;;;1.70;;
26594;SDS011;14238;49.496;8.154;2023-05-10T07:13:29;1.77;;;1.73;;
26594;SDS011;14238;49.496;8.154;2023-05-10T07:15:56;2.20;;;2.10;;
26594;SDS011;14238;49.496;8.154;2023-05-10T07:18:22;2.40;;;2.30;;
26594;SDS011;14238;49.496;8.154;2023-05-10T07:20:48;1.63;;;1.57;;
26594;SDS011;14238;49.496;8.154;2023-05-10T07:23:13;2.23;;;2.03;;
26594;SDS011;14238;49.496;8.154;2023-05-10T07:25:39;2.13;;;2.03;;
26594;SDS011;14238;49.496;8.154;2023-05-10T07:28:05;1.90;;;1.80;;
26594;SDS011;14238;49.496;8.154;2023-05-10T07:30:30;1.80;;;1.70;;
26594;SDS011;14238;49.496;8.154;2023-05-10T07:32:56;2.27;;;2.07;;
26594;SDS011;14238;49.496;8.154;2023-05-10T07:35:21;1.90;;;1.80;;
26594;SDS011;14238;49.496;8.154;2023-05-10T07:37:47;1.90;;;1.80;;
26594;SDS011;14238;49.496;8.154;2023-05-10T07:40:12;1.77;;;1.73;;
26594;SDS011;14238;49.496;8.154;2023-05-10T07:42:38;1.80;;;1.70;;
26594;SDS011;14238;49.496;8.154;2023-05-10T07:45:04;3.70;;;1.63;;
26594;SDS011;14238;49.496;8.154;2023-05-10T07:47:30;1.90;;;1.80;;
26594;SDS011;14238;49.496;8.154;2023-05-10T07:49:55;1.70;;;1.60;;
26594;SDS011;14238;49.496;8.154;2023-05-10T07:52:21;1.53;;;1.43;;
26594;SDS011;14238;49.496;8.154;2023-05-10T07:54:46;2.17;;;1.97;;
26594;SDS011;14238;49.496;8.154;2023-05-10T07:57:12;1.90;;;1.80;;
26594;SDS011;14238;49.496;8.154;2023-05-10T07:59:39;1.67;;;1.67;;
26594;SDS011;14238;49.496;8.154;2023-05-10T08:02:07;1.90;;;1.80;;
26594;SDS011;14238;49.496;8.154;2023-05-10T08:04:32;1.53;;;1.50;;
26594;SDS011;14238;49.496;8.154;2023-05-10T08:06:58;1.40;;;1.40;;
26594;SDS011;14238;49.496;8.154;2023-05-10T08:09:23;2.30;;;1.83;;
26594;SDS011;14238;49.496;8.154;2023-05-10T08:11:49;1.80;;;1.70;;
26594;SDS011;14238;49.496;8.154;2023-05-10T08:14:15;1.97;;;1.87;;
26594;SDS011;14238;49.496;8.154;2023-05-10T08:16:41;1.90;;;1.80;;
26594;SDS011;14238;49.496;8.154;2023-05-10T08:19:07;2.07;;;1.97;;
26594;SDS011;14238;49.496;8.154;2023-05-10T08:21:32;2.13;;;2.00;;
26594;SDS011;14238;49.496;8.154;2023-05-10T08:23:58;2.07;;;1.93;;
26594;SDS011;14238;49.496;8.154;2023-05-10T08:26:24;2.13;;;2.03;;
26594;SDS011;14238;49.496;8.154;2023-05-10T08:28:49;2.70;;;2.50;;
26594;SDS011;14238;49.496;8.154;2023-05-10T08:31:15;2.47;;;2.27;;
26594;SDS011;14238;49.496;8.154;2023-05-10T08:33:41;2.50;;;2.30;;
26594;SDS011;14238;49.496;8.154;2023-05-10T08:36:06;2.27;;;2.17;;
26594;SDS011;14238;49.496;8.154;2023-05-10T08:38:32;2.80;;;2.50;;
26594;SDS011;14238;49.496;8.154;2023-05-10T08:40:57;2.03;;;1.93;;
26594;SDS011;14238;49.496;8.154;2023-05-10T08:43:27;1.80;;;1.70;;
26594;SDS011;14238;49.496;8.154;2023-05-10T08:45:56;2.10;;;1.90;;
26594;SDS011;14238;49.496;8.154;2023-05-10T08:48:26;3.13;;;1.87;;
26594;SDS011;14238;49.496;8.154;2023-05-10T08:50:54;2.10;;;2.00;;
26594;SDS011;14238;49.496;8.154;2023-05-10T08:53:24;1.93;;;1.93;;
26594;SDS011;14238;49.496;8.154;2023-05-10T08:55:52;1.60;;;1.60;;
26594;SDS011;14238;49.496;8.154;2023-05-10T08:58:18;1.87;;;1.77;;
26594;SDS011;14238;49.496;8.154;2023-05-10T09:00:44;1.63;;;1.63;;
26594;SDS011;14238;49.496;8.154;2023-05-10T09:03:11;1.90;;;1.90;;
26594;SDS011;14238;49.496;8.154;2023-05-10T09:05:38;1.70;;;1.60;;
26594;SDS011;14238;49.496;8.154;2023-05-10T09:08:03;1.57;;;1.57;;
26594;SDS011;14238;49.496;8.154;2023-05-10T09:10:30;1.30;;;1.30;;
26594;SDS011;14238;49.496;8.154;2023-05-10T09:12:56;1.33;;;1.23;;
26594;SDS011;14238;49.496;8.154;2023-05-10T09:15:22;1.80;;;1.33;;
26594;SDS011;14238;49.496;8.154;2023-05-10T09:17:48;2.07;;;1.83;;
26594;SDS011;14238;49.496;8.154;2023-05-10T09:20:14;1.70;;;1.60;;
26594;SDS011;14238;49.496;8.154;2023-05-10T09:22:42;1.37;;;1.30;;
26594;SDS011;14238;49.496;8.154;2023-05-10T09:27:40;1.20;;;1.20;;
26594;SDS011;14238;49.496;8.154;2023-05-10T09:30:10;1.27;;;1.27;;
26594;SDS011;14238;49.496;8.154;2023-05-10T09:32:41;1.30;;;1.30;;
26594;SDS011;14238;49.496;8.154;2023-05-10T09:35:12;1.70;;;1.60;;
26594;SDS011;14238;49.496;8.154;2023-05-10T09:37:43;2.03;;;1.93;;
26594;SDS011;14238;49.496;8.154;2023-05-10T09:40:14;2.53;;;2.33;;
26594;SDS011;14238;49.496;8.154;2023-05-10T09:45:30;2.40;;;2.13;;
26594;SDS011;14238;49.496;8.154;2023-05-10T09:47:56;2.60;;;2.40;;
26594;SDS011;14238;49.496;8.154;2023-05-10T09:50:23;2.67;;;2.50;;
26594;SDS011;14238;49.496;8.154;2023-05-10T09:52:56;2.13;;;2.03;;
26594;SDS011;14238;49.496;8.154;2023-05-10T09:55:26;2.63;;;2.20;;
26594;SDS011;14238;49.496;8.154;2023-05-10T09:58:07;2.47;;;2.10;;
26594;SDS011;14238;49.496;8.154;2023-05-10T10:00:37;2.63;;;2.40;;
26594;SDS011;14238;49.496;8.154;2023-05-10T10:03:04;2.30;;;2.10;;
26594;SDS011;14238;49.496;8.154;2023-05-10T10:05:31;2.80;;;1.90;;
26594;SDS011;14238;49.496;8.154;2023-05-10T10:07:58;1.60;;;1.60;;
26594;SDS011;14238;49.496;8.154;2023-05-10T10:10:25;1.70;;;1.60;;
26594;SDS011;14238;49.496;8.154;2023-05-10T10:12:51;1.40;;;1.40;;
26594;SDS011;14238;49.496;8.154;2023-05-10T10:15:17;3.97;;;1.47;;
26594;SDS011;14238;49.496;8.154;2023-05-10T10:17:43;1.40;;;1.30;;
26594;SDS011;14238;49.496;8.154;2023-05-10T10:20:09;2.73;;;1.40;;
26594;SDS011;14238;49.496;8.154;2023-05-10T10:22:36;1.33;;;1.33;;
26594;SDS011;14238;49.496;8.154;2023-05-10T10:25:02;1.30;;;1.30;;
26594;SDS011;14238;49.496;8.154;2023-05-10T10:30:52;4.47;;;1.30;;
26594;SDS011;14238;49.496;8.154;2023-05-10T10:35:55;1.87;;;1.43;;
26594;SDS011;14238;49.496;8.154;2023-05-10T10:38:23;2.57;;;1.73;;
26594;SDS011;14238;49.496;8.154;2023-05-10T10:40:49;1.70;;;1.60;;
26594;SDS011;14238;49.496;8.154;2023-05-10T10:43:28;1.63;;;1.30;;
26594;SDS011;14238;49.496;8.154;2023-05-10T10:46:09;4.83;;;1.73;;
26594;SDS011;14238;49.496;8.154;2023-05-10T10:49:22;1.67;;;1.30;;
26594;SDS011;14238;49.496;8.154;2023-05-10T10:51:37;3.27;;;1.70;;
26594;SDS011;14238;49.496;8.154;2023-05-10T10:54:09;1.87;;;1.27;;
26594;SDS011;14238;49.496;8.154;2023-05-10T10:56:35;1.13;;;1.13;;
26594;SDS011;14238;49.496;8.154;2023-05-10T10:59:00;1.43;;;1.20;;
26594;SDS011;14238;49.496;8.154;2023-05-10T11:01:26;2.00;;;1.20;;
26594;SDS011;14238;49.496;8.154;2023-05-10T11:06:31;1.50;;;1.40;;
26594;SDS011;14238;49.496;8.154;2023-05-10T11:08:58;1.90;;;1.17;;
26594;SDS011;14238;49.496;8.154;2023-05-10T11:11:24;3.63;;;1.40;;
26594;SDS011;14238;49.496;8.154;2023-05-10T11:13:50;1.50;;;1.40;;
26594;SDS011;14238;49.496;8.154;2023-05-10T11:16:19;1.47;;;1.37;;
26594;SDS011;14238;49.496;8.154;2023-05-10T11:18:53;1.70;;;1.60;;
26594;SDS011;14238;49.496;8.154;2023-05-10T11:21:24;1.10;;;1.10;;
26594;SDS011;14238;49.496;8.154;2023-05-10T11:23:50;2.23;;;1.40;;
26594;SDS011;14238;49.496;8.154;2023-05-10T11:26:24;3.83;;;1.20;;
26594;SDS011;14238;49.496;8.154;2023-05-10T11:28:51;1.20;;;1.20;;
26594;SDS011;14238;49.496;8.154;2023-05-10T11:31:19;1.93;;;1.30;;
26594;SDS011;14238;49.496;8.154;2023-05-10T11:33:56;1.43;;;1.33;;
26594;SDS011;14238;49.496;8.154;2023-05-10T11:36:24;1.30;;;1.30;;
26594;SDS011;14238;49.496;8.154;2023-05-10T11:38:54;1.50;;;1.23;;
26594;SDS011;14238;49.496;8.154;2023-05-10T11:41:21;2.00;;;1.47;;
26594;SDS011;14238;49.496;8.154;2023-05-10T11:43:51;2.20;;;1.40;;
26594;SDS011;14238;49.496;8.154;2023-05-10T11:46:18;1.70;;;1.20;;
26594;SDS011;14238;49.496;8.154;2023-05-10T11:48:45;1.40;;;1.30;;
26594;SDS011;14238;49.496;8.154;2023-05-10T11:51:19;1.20;;;1.10;;
26594;SDS011;14238;49.496;8.154;2023-05-10T11:53:49;1.30;;;1.20;;
26594;SDS011;14238;49.496;8.154;2023-05-10T11:56:17;2.40;;;1.30;;
26594;SDS011;14238;49.496;8.154;2023-05-10T11:58:43;2.10;;;1.33;;
26594;SDS011;14238;49.496;8.154;2023-05-10T12:01:08;3.57;;;1.30;;
26594;SDS011;14238;49.496;8.154;2023-05-10T12:03:35;2.03;;;1.40;;
26594;SDS011;14238;49.496;8.154;2023-05-10T12:06:01;2.93;;;1.83;;
26594;SDS011;14238;49.496;8.154;2023-05-10T12:08:27;2.50;;;1.07;;
26594;SDS011;14238;49.496;8.154;2023-05-10T12:11:03;3.27;;;1.50;;
26594;SDS011;14238;49.496;8.154;2023-05-10T12:13:37;2.67;;;1.33;;
26594;SDS011;14238;49.496;8.154;2023-05-10T12:16:18;1.67;;;1.50;;
26594;SDS011;14238;49.496;8.154;2023-05-10T12:18:47;1.53;;;1.43;;
26594;SDS011;14238;49.496;8.154;2023-05-10T12:21:14;1.30;;;1.20;;
26594;SDS011;14238;49.496;8.154;2023-05-10T12:23:40;1.63;;;1.40;;
26594;SDS011;14238;49.496;8.154;2023-05-10T12:26:06;2.73;;;1.10;;
26594;SDS011;14238;49.496;8.154;2023-05-10T12:28:34;1.50;;;1.40;;
26594;SDS011;14238;49.496;8.154;2023-05-10T12:31:00;2.57;;;1.23;;
26594;SDS011;14238;49.496;8.154;2023-05-10T12:33:27;2.93;;;1.30;;
26594;SDS011;14238;49.496;8.154;2023-05-10T12:36:03;1.50;;;1.00;;
26594;SDS011;14238;49.496;8.154;2023-05-10T12:38:34;0.97;;;0.97;;
26594;SDS011;14238;49.496;8.154;2023-05-10T12:41:03;1.40;;;1.00;;
26594;SDS011;14238;49.496;8.154;2023-05-10T12:43:30;1.40;;;1.00;;
26594;SDS011;14238;49.496;8.154;2023-05-10T12:45:56;0.97;;;0.97;;
26594;SDS011;14238;49.496;8.154;2023-05-10T12:48:21;1.20;;;1.00;;
26594;SDS011;14238;49.496;8.154;2023-05-10T12:50:47;3.20;;;1.00;;
26594;SDS011;14238;49.496;8.154;2023-05-10T12:53:13;1.60;;;0.77;;
26594;SDS011;14238;49.496;8.154;2023-05-10T12:55:40;2.63;;;0.70;;
26594;SDS011;14238;49.496;8.154;2023-05-10T12:58:06;1.77;;;0.80;;
26594;SDS011;14238;49.496;8.154;2023-05-10T13:00:32;1.20;;;0.90;;
26594;SDS011;14238;49.496;8.154;2023-05-10T13:02:57;1.90;;;0.90;;
26594;SDS011;14238;49.496;8.154;2023-05-10T13:05:23;0.90;;;0.90;;
26594;SDS011;14238;49.496;8.154;2023-05-10T13:07:48;1.10;;;0.93;;
26594;SDS011;14238;49.496;8.154;2023-05-10T13:10:14;1.00;;;0.90;;
26594;SDS011;14238;49.496;8.154;2023-05-10T13:12:40;0.90;;;0.73;;
26594;SDS011;14238;49.496;8.154;2023-05-10T13:15:06;1.07;;;0.60;;
26594;SDS011;14238;49.496;8.154;2023-05-10T13:17:32;0.83;;;0.80;;
26594;SDS011;14238;49.496;8.154;2023-05-10T13:19:58;1.93;;;1.00;;
26594;SDS011;14238;49.496;8.154;2023-05-10T13:22:23;1.80;;;0.77;;
26594;SDS011;14238;49.496;8.154;2023-05-10T13:24:49;1.93;;;0.80;;
26594;SDS011;14238;49.496;8.154;2023-05-10T13:27:14;0.80;;;0.80;;
26594;SDS011;14238;49.496;8.154;2023-05-10T13:29:40;0.60;;;0.60;;
26594;SDS011;14238;49.496;8.154;2023-05-10T13:32:05;0.97;;;0.80;;
26594;SDS011;14238;49.496;8.154;2023-05-10T13:34:31;1.17;;;0.80;;
26594;SDS011;14238;49.496;8.154;2023-05-10T13:36:56;2.80;;;0.90;;
26594;SDS011;14238;49.496;8.154;2023-05-10T13:39:22;1.13;;;0.80;;
26594;SDS011;14238;49.496;8.154;2023-05-10T13:41:48;1.70;;;0.77;;
26594;SDS011;14238;49.496;8.154;2023-05-10T13:44:14;1.97;;;0.70;;
26594;SDS011;14238;49.496;8.154;2023-05-10T13:46:40;1.03;;;0.90;;
26594;SDS011;14238;49.496;8.154;2023-05-10T13:49:07;0.80;;;0.80;;
26594;SDS011;14238;49.496;8.154;2023-05-10T13:51:33;0.60;;;0.60;;
26594;SDS011;14238;49.496;8.154;2023-05-10T13:54:00;1.23;;;1.00;;
26594;SDS011;14238;49.496;8.154;2023-05-10T13:56:26;0.63;;;0.63;;
26594;SDS011;14238;49.496;8.154;2023-05-10T13:58:52;2.30;;;0.87;;
26594;SDS011;14238;49.496;8.154;2023-05-10T14:01:17;1.50;;;1.40;;
26594;SDS011;14238;49.496;8.154;2023-05-10T14:03:43;1.33;;;1.23;;
26594;SDS011;14238;49.496;8.154;2023-05-10T14:06:08;1.33;;;1.30;;
26594;SDS011;14238;49.496;8.154;2023-05-10T14:08:34;0.70;;;0.60;;
26594;SDS011;14238;49.496;8.154;2023-05-10T14:11:02;0.60;;;0.60;;
26594;SDS011;14238;49.496;8.154;2023-05-10T14:13:27;0.83;;;0.73;;
26594;SDS011;14238;49.496;8.154;2023-05-10T14:15:53;1.80;;;0.73;;
26594;SDS011;14238;49.496;8.154;2023-05-10T14:18:19;0.70;;;0.60;;
26594;SDS011;14238;49.496;8.154;2023-05-10T14:20:45;2.10;;;0.80;;
26594;SDS011;14238;49.496;8.154;2023-05-10T14:23:10;1.30;;;0.90;;
26594;SDS011;14238;49.496;8.154;2023-05-10T14:25:36;1.73;;;0.83;;
26594;SDS011;14238;49.496;8.154;2023-05-10T14:28:03;0.80;;;0.80;;
26594;SDS011;14238;49.496;8.154;2023-05-10T14:30:28;2.30;;;0.70;;
26594;SDS011;14238;49.496;8.154;2023-05-10T14:32:54;0.87;;;0.70;;
26594;SDS011;14238;49.496;8.154;2023-05-10T14:35:20;0.80;;;0.70;;
26594;SDS011;14238;49.496;8.154;2023-05-10T14:37:46;1.17;;;0.70;;
26594;SDS011;14238;49.496;8.154;2023-05-10T14:40:11;3.73;;;1.00;;
26594;SDS011;14238;49.496;8.154;2023-05-10T14:42:37;2.33;;;0.60;;
26594;SDS011;14238;49.496;8.154;2023-05-10T14:45:03;0.97;;;0.93;;
26594;SDS011;14238;49.496;8.154;2023-05-10T14:47:29;1.03;;;1.03;;
26594;SDS011;14238;49.496;8.154;2023-05-10T14:49:55;0.70;;;0.70;;
26594;SDS011;14238;49.496;8.154;2023-05-10T14:52:20;1.87;;;0.77;;
26594;SDS011;14238;49.496;8.154;2023-05-10T14:54:46;1.90;;;0.70;;
26594;SDS011;14238;49.496;8.154;2023-05-10T14:57:11;0.60;;;0.60;;
26594;SDS011;14238;49.496;8.154;2023-05-10T14:59:37;1.03;;;0.70;;
26594;SDS011;14238;49.496;8.154;2023-05-10T15:02:03;0.90;;;0.70;;
26594;SDS011;14238;49.496;8.154;2023-05-10T15:04:29;0.77;;;0.77;;
26594;SDS011;14238;49.496;8.154;2023-05-10T15:06:55;1.90;;;0.70;;
26594;SDS011;14238;49.496;8.154;2023-05-10T15:09:24;2.00;;;0.80;;
26594;SDS011;14238;49.496;8.154;2023-05-10T15:11:50;1.57;;;0.60;;